FMEEFIMP

Guest
Details From FMEE - St Denis Gillot
To FIMP - SIR SEEWOOSAGUR RAMGOOLAM INTL
Flight Number -
Tags generated
Created
Modified
Stats Distance 125 nm / 231 km
Max Altitude 9,300 ft / 2,835 m
Waypoints 3
Social Downloads 1
Likes 0
Share VATSIM

Download

Looking for another format? Having issues loading an existing format? Contact us
Advertisement - Login to hide

Notes

Basic altitude profile: - Ascent Rate: 800ft/min - Ascent Speed: 150kts - Cruise Altitude: 17000ft - Cruise Speed: 200kts - Descent Rate: 1500ft/min - Descent Speed: 160kts

Route

FMEE SOBAT FIMP

ID Type Via Altitude Latitude Longitude Leg Dist Tot Dist Heading (true) Name
O FMEE APT - 0 ft / 0 m -20.88931˚ 55.51775˚ - 0 nm - St Denis Gillot
SOBAT FIX - 9,300 ft / 2,835 m -20.72469˚ 56.26711˚ 43 nm 43 nm 77° / 77° -
O FIMP APT - 0 ft / 0 m -20.43023˚ 57.68360˚ 81 nm 124 nm 78° / 77° SIR SEEWOOSAGUR RAMGOOLAM INTL

Altitude Profile

Advertisement - Login to hide

FMEE

Details ICAO FMEE (RUN)
Name St Denis Gillot
Region Comoros, Mayotte, Réunion and Madagascar
Timezone Indian/Reunion (UTC+4.0)
Stats Elevation 66 ft / 20 m (AMSL)
Location -20.889313° 55.517752°
Runways 2
Magnetic Variation 18.966° W

METAR

FMEE 240100Z AUTO 12010KT 9999 FEW030/// SCT040/// BKN058/// 22/18 Q1020 TEMPO 4500 SHRA BKN014

Decode

TAF

TAF FMEE 231700Z 2318/2424 14012KT 9999 RA FEW020 SCT030 TEMPO 2318/2404 4500 SHRA BKN014

Decode

Departure Runways

ID Width Length Bearing (true) Bearing (mag) Surface Threshold Offset Overrun Length
12 148 ft / 45 m 10,581 ft / 3,225 m 102.26° 121.23° Asphalt 397 ft / 121 m 148 ft / 45 m
14 148 ft / 45 m 8,842 ft / 2,695 m 116.55° 135.52° Asphalt 338 ft / 103 m 98 ft / 30 m
30 148 ft / 45 m 10,581 ft / 3,225 m 282.25° 301.22° Asphalt 0 ft / 0 m 0 ft / 0 m
32 148 ft / 45 m 8,842 ft / 2,695 m 296.54° 315.51° Asphalt 1,175 ft / 358 m 377 ft / 115 m

FIMP

Details ICAO FIMP (MRU)
Name SIR SEEWOOSAGUR RAMGOOLAM INTL
Region Mauritius
Timezone Indian/Mauritius (UTC+4.0)
Stats Elevation 186 ft / 57 m (AMSL)
Location -20.430235° 57.683602°
Runways 1
Magnetic Variation 18.389° W

METAR

FIMP 240100Z 11015KT 9999 VCSH BKN017 24/19 Q1021

Decode

TAF

TAF FIMP 232300Z 2400/2506 11015G30KT 9999 SCT016 TEMPO 2400/2406 7000 -SHRA FEW010 SCT015 BKN050 PROB30 TEMPO 2412/2506 5000 -SHRA FEW007 BKN014 BKN045

Decode

Destination Runways

ID Width Length Bearing (true) Bearing (mag) Surface Threshold Offset Overrun Length
14 148 ft / 45 m 11,037 ft / 3,364 m 117.22° 135.61° Asphalt 1,082 ft / 330 m 200 ft / 61 m
32 148 ft / 45 m 11,037 ft / 3,364 m 297.21° 315.60° Asphalt 0 ft / 0 m 0 ft / 0 m

Approach Navaids

Runway Type Ident Frequency Range Bearing (true) Bearing (mag) Slope Elevation
14 Localiser IPL 109.90 MHz 18 nm / 33 km 117.52° 135.91° - 186 ft / 57 m (AMSL)
14 Glidescope IPL 109.90 MHz 10 nm / 19 km 117.22° 135.60° 3.50° 186 ft / 57 m (AMSL)
14 DME IPL 109.90 MHz 18 nm / 33 km - - - 186 ft / 57 m (AMSL)

Popular Alternatives